sensor_id;sensor_type;location;lat;lon;timestamp;temperature;humidity
22132;DHT22;11232;51.748;19.390;2022-11-11T11:26:45;11.00;99.90
22132;DHT22;11232;51.748;19.390;2022-11-11T11:29:11;10.80;99.90
22132;DHT22;11232;51.748;19.390;2022-11-11T11:31:39;10.90;99.90
22132;DHT22;11232;51.748;19.390;2022-11-11T11:34:05;10.90;99.90
22132;DHT22;11232;51.748;19.390;2022-11-11T11:36:31;11.10;99.90
22132;DHT22;11232;51.748;19.390;2022-11-11T11:38:57;11.00;99.90
22132;DHT22;11232;51.748;19.390;2022-11-11T11:41:36;11.00;99.90
22132;DHT22;11232;51.748;19.390;2022-11-11T11:44:01;10.90;99.90
22132;DHT22;11232;51.748;19.390;2022-11-11T11:46:38;10.90;99.90
22132;DHT22;11232;51.748;19.390;2022-11-11T11:55:16;10.90;99.90
22132;DHT22;11232;51.748;19.390;2022-11-11T11:57:49;10.90;99.90
22132;DHT22;11232;51.748;19.390;2022-11-11T12:00:29;10.80;99.90
22132;DHT22;11232;51.748;19.390;2022-11-11T12:14:14;10.80;99.90
22132;DHT22;11232;51.748;19.390;2022-11-11T12:19:31;10.70;99.90
22132;DHT22;11232;51.748;19.390;2022-11-11T12:24:49;10.70;99.90
22132;DHT22;11232;51.748;19.390;2022-11-11T12:27:35;10.70;99.90
22132;DHT22;11232;51.748;19.390;2022-11-11T12:30:07;10.70;99.90
22132;DHT22;11232;51.748;19.390;2022-11-11T12:44:07;10.80;99.90
22132;DHT22;11232;51.748;19.390;2022-11-11T12:49:36;10.80;99.90
22132;DHT22;11232;51.748;19.390;2022-11-11T12:55:15;10.90;99.90
22132;DHT22;11232;51.748;19.390;2022-11-11T13:00:49;11.10;99.90
22132;DHT22;11232;51.748;19.390;2022-11-11T13:09:24;11.20;99.90
22132;DHT22;11232;51.748;19.390;2022-11-11T13:12:14;11.30;99.90
22132;DHT22;11232;51.748;19.390;2022-11-11T13:17:12;11.70;99.90
22132;DHT22;11232;51.748;19.390;2022-11-11T13:22:27;11.90;99.90
22132;DHT22;11232;51.748;19.390;2022-11-11T13:24:54;12.00;99.90
22132;DHT22;11232;51.748;19.390;2022-11-11T13:28:01;12.10;99.90
22132;DHT22;11232;51.748;19.390;2022-11-11T13:36:03;11.90;99.90
22132;DHT22;11232;51.748;19.390;2022-11-11T13:38:34;11.80;99.90
22132;DHT22;11232;51.748;19.390;2022-11-11T13:41:04;11.80;99.90
22132;DHT22;11232;51.748;19.390;2022-11-11T13:43:45;11.60;99.90
22132;DHT22;11232;51.748;19.390;2022-11-11T13:48:58;11.40;99.90
22132;DHT22;11232;51.748;19.390;2022-11-11T13:54:03;11.20;99.90
22132;DHT22;11232;51.748;19.390;2022-11-11T13:56:39;11.20;99.90
22132;DHT22;11232;51.748;19.390;2022-11-11T13:59:13;11.20;99.90
22132;DHT22;11232;51.748;19.390;2022-11-11T14:01:41;11.20;99.90
22132;DHT22;11232;51.748;19.390;2022-11-11T14:04:08;11.10;99.90
22132;DHT22;11232;51.748;19.390;2022-11-11T14:09:00;11.00;99.90
22132;DHT22;11232;51.748;19.390;2022-11-11T14:11:28;11.10;99.90
22132;DHT22;11232;51.748;19.390;2022-11-11T14:13:56;11.00;99.90
22132;DHT22;11232;51.748;19.390;2022-11-11T14:21:52;10.80;99.90
22132;DHT22;11232;51.748;19.390;2022-11-11T14:27:00;10.70;99.90
22132;DHT22;11232;51.748;19.390;2022-11-11T14:29:32;10.70;99.90
22132;DHT22;11232;51.748;19.390;2022-11-11T14:35:18;10.60;99.90
22132;DHT22;11232;51.748;19.390;2022-11-11T14:40:52;10.40;99.90
22132;DHT22;11232;51.748;19.390;2022-11-11T14:43:36;10.40;99.90
22132;DHT22;11232;51.748;19.390;2022-11-11T14:46:11;10.40;99.90
22132;DHT22;11232;51.748;19.390;2022-11-11T14:48:59;10.30;99.90
22132;DHT22;11232;51.748;19.390;2022-11-11T14:51:39;10.30;99.90
22132;DHT22;11232;51.748;19.390;2022-11-11T14:54:50;10.30;99.90
22132;DHT22;11232;51.748;19.390;2022-11-11T14:57:09;10.10;99.90
22132;DHT22;11232;51.748;19.390;2022-11-11T14:59:40;10.10;99.90
22132;DHT22;11232;51.748;19.390;2022-11-11T15:02:21;10.10;99.90
22132;DHT22;11232;51.748;19.390;2022-11-11T15:04:47;10.10;99.90
22132;DHT22;11232;51.748;19.390;2022-11-11T15:07:24;10.60;99.90
22132;DHT22;11232;51.748;19.390;2022-11-11T15:10:02;10.00;99.90
22132;DHT22;11232;51.748;19.390;2022-11-11T15:12:48;10.20;99.90
22132;DHT22;11232;51.748;19.390;2022-11-11T15:15:25;9.90;99.90
22132;DHT22;11232;51.748;19.390;2022-11-11T15:18:07;9.90;99.90
22132;DHT22;11232;51.748;19.390;2022-11-11T15:20:52;9.80;99.90
22132;DHT22;11232;51.748;19.390;2022-11-11T15:26:54;9.80;99.90
22132;DHT22;11232;51.748;19.390;2022-11-11T15:29:48;9.80;99.90
22132;DHT22;11232;51.748;19.390;2022-11-11T15:32:32;9.80;99.90
22132;DHT22;11232;51.748;19.390;2022-11-11T15:35:22;9.70;99.90
22132;DHT22;11232;51.748;19.390;2022-11-11T15:37:54;9.80;99.90
22132;DHT22;11232;51.748;19.390;2022-11-11T15:40:44;9.70;99.90
22132;DHT22;11232;51.748;19.390;2022-11-11T15:43:28;9.70;99.90
22132;DHT22;11232;51.748;19.390;2022-11-11T15:46:00;9.70;99.90
22132;DHT22;11232;51.748;19.390;2022-11-11T15:48:29;9.90;99.90
22132;DHT22;11232;51.748;19.390;2022-11-11T15:50:57;9.60;99.90
22132;DHT22;11232;51.748;19.390;2022-11-11T15:53:25;9.60;99.90
22132;DHT22;11232;51.748;19.390;2022-11-11T15:55:56;9.60;99.90
22132;DHT22;11232;51.748;19.390;2022-11-11T15:58:30;9.50;99.90
22132;DHT22;11232;51.748;19.390;2022-11-11T16:00:57;9.50;99.90
22132;DHT22;11232;51.748;19.390;2022-11-11T16:03:40;9.50;99.90
22132;DHT22;11232;51.748;19.390;2022-11-11T16:06:13;9.40;99.90
22132;DHT22;11232;51.748;19.390;2022-11-11T16:08:41;9.40;99.90
22132;DHT22;11232;51.748;19.390;2022-11-11T16:11:11;9.40;99.90
22132;DHT22;11232;51.748;19.390;2022-11-11T16:13:46;9.40;99.90
22132;DHT22;11232;51.748;19.390;2022-11-11T16:16:15;9.40;99.90
22132;DHT22;11232;51.748;19.390;2022-11-11T16:18:52;9.40;99.90
22132;DHT22;11232;51.748;19.390;2022-11-11T16:21:42;9.30;99.90
22132;DHT22;11232;51.748;19.390;2022-11-11T16:26:47;9.30;99.90
22132;DHT22;11232;51.748;19.390;2022-11-11T16:29:14;9.30;99.90
22132;DHT22;11232;51.748;19.390;2022-11-11T16:31:42;9.30;99.90
22132;DHT22;11232;51.748;19.390;2022-11-11T16:36:58;9.30;99.90
22132;DHT22;11232;51.748;19.390;2022-11-11T16:39:26;9.30;99.90
22132;DHT22;11232;51.748;19.390;2022-11-11T16:41:56;9.30;99.90
22132;DHT22;11232;51.748;19.390;2022-11-11T16:46:57;9.40;99.90
22132;DHT22;11232;51.748;19.390;2022-11-11T16:51:52;9.40;99.90
22132;DHT22;11232;51.748;19.390;2022-11-11T16:54:30;9.40;99.90
22132;DHT22;11232;51.748;19.390;2022-11-11T16:56:58;9.50;99.90
22132;DHT22;11232;51.748;19.390;2022-11-11T16:59:41;9.60;99.90
22132;DHT22;11232;51.748;19.390;2022-11-11T17:02:18;9.50;99.90
22132;DHT22;11232;51.748;19.390;2022-11-11T17:04:46;9.50;99.90
22132;DHT22;11232;51.748;19.390;2022-11-11T17:07:42;9.50;99.90
22132;DHT22;11232;51.748;19.390;2022-11-11T17:12:35;9.50;99.90
22132;DHT22;11232;51.748;19.390;2022-11-11T17:15:02;9.60;99.90
22132;DHT22;11232;51.748;19.390;2022-11-11T17:17:31;9.60;99.90
22132;DHT22;11232;51.748;19.390;2022-11-11T17:20:01;9.60;99.90
22132;DHT22;11232;51.748;19.390;2022-11-11T17:22:27;9.60;99.90
22132;DHT22;11232;51.748;19.390;2022-11-11T17:24:53;9.60;99.90
22132;DHT22;11232;51.748;19.390;2022-11-11T17:27:18;9.60;99.90
22132;DHT22;11232;51.748;19.390;2022-11-11T17:29:44;9.60;99.90
22132;DHT22;11232;51.748;19.390;2022-11-11T17:32:09;9.60;99.90
22132;DHT22;11232;51.748;19.390;2022-11-11T17:34:35;9.60;99.90
22132;DHT22;11232;51.748;19.390;2022-11-11T17:37:01;9.50;99.90
22132;DHT22;11232;51.748;19.390;2022-11-11T17:39:26;9.60;99.90
22132;DHT22;11232;51.748;19.390;2022-11-11T17:41:52;9.60;99.90
22132;DHT22;11232;51.748;19.390;2022-11-11T17:44:17;9.60;99.90
22132;DHT22;11232;51.748;19.390;2022-11-11T17:46:43;9.60;99.90
22132;DHT22;11232;51.748;19.390;2022-11-11T17:49:09;9.60;99.90
22132;DHT22;11232;51.748;19.390;2022-11-11T17:51:35;9.60;99.90
22132;DHT22;11232;51.748;19.390;2022-11-11T17:54:00;9.60;99.90
22132;DHT22;11232;51.748;19.390;2022-11-11T17:56:26;9.60;99.90
22132;DHT22;11232;51.748;19.390;2022-11-11T17:58:52;9.60;99.90
22132;DHT22;11232;51.748;19.390;2022-11-11T18:01:18;9.60;99.90
22132;DHT22;11232;51.748;19.390;2022-11-11T18:03:44;9.50;99.90
22132;DHT22;11232;51.748;19.390;2022-11-11T18:06:10;9.60;99.90
22132;DHT22;11232;51.748;19.390;2022-11-11T18:08:36;9.60;99.90
22132;DHT22;11232;51.748;19.390;2022-11-11T18:11:03;9.90;99.90
22132;DHT22;11232;51.748;19.390;2022-11-11T18:13:29;9.70;99.90
22132;DHT22;11232;51.748;19.390;2022-11-11T18:15:55;9.80;99.90
22132;DHT22;11232;51.748;19.390;2022-11-11T18:18:24;9.80;99.90
22132;DHT22;11232;51.748;19.390;2022-11-11T18:20:50;9.90;99.90
22132;DHT22;11232;51.748;19.390;2022-11-11T18:23:15;10.10;99.90
22132;DHT22;11232;51.748;19.390;2022-11-11T18:25:41;9.70;99.90
22132;DHT22;11232;51.748;19.390;2022-11-11T18:28:07;9.60;99.90
22132;DHT22;11232;51.748;19.390;2022-11-11T18:30:33;9.60;99.90
22132;DHT22;11232;51.748;19.390;2022-11-11T18:32:59;9.60;99.90
22132;DHT22;11232;51.748;19.390;2022-11-11T18:35:24;9.70;99.90
22132;DHT22;11232;51.748;19.390;2022-11-11T18:37:50;9.60;99.90
22132;DHT22;11232;51.748;19.390;2022-11-11T18:40:15;9.50;99.90
22132;DHT22;11232;51.748;19.390;2022-11-11T18:42:41;9.70;99.90
22132;DHT22;11232;51.748;19.390;2022-11-11T18:45:07;9.80;99.90
22132;DHT22;11232;51.748;19.390;2022-11-11T18:47:33;9.60;99.90
22132;DHT22;11232;51.748;19.390;2022-11-11T18:49:58;9.60;99.90
22132;DHT22;11232;51.748;19.390;2022-11-11T18:52:24;9.70;99.90
22132;DHT22;11232;51.748;19.390;2022-11-11T18:54:49;9.60;99.90
22132;DHT22;11232;51.748;19.390;2022-11-11T18:57:15;9.70;99.90
22132;DHT22;11232;51.748;19.390;2022-11-11T18:59:40;9.60;99.90
22132;DHT22;11232;51.748;19.390;2022-11-11T19:02:07;9.60;99.90
22132;DHT22;11232;51.748;19.390;2022-11-11T19:04:33;9.50;99.90
22132;DHT22;11232;51.748;19.390;2022-11-11T19:06:58;9.60;99.90
22132;DHT22;11232;51.748;19.390;2022-11-11T19:09:25;9.60;99.90
22132;DHT22;11232;51.748;19.390;2022-11-11T19:11:51;9.60;99.90
22132;DHT22;11232;51.748;19.390;2022-11-11T19:14:17;9.60;99.90
22132;DHT22;11232;51.748;19.390;2022-11-11T19:16:44;9.50;99.90
22132;DHT22;11232;51.748;19.390;2022-11-11T19:19:10;9.60;99.90
22132;DHT22;11232;51.748;19.390;2022-11-11T19:21:36;9.50;99.90
22132;DHT22;11232;51.748;19.390;2022-11-11T19:24:04;9.50;99.90
22132;DHT22;11232;51.748;19.390;2022-11-11T19:26:31;9.50;99.90
22132;DHT22;11232;51.748;19.390;2022-11-11T19:28:58;9.50;99.90
22132;DHT22;11232;51.748;19.390;2022-11-11T19:31:25;9.50;99.90
22132;DHT22;11232;51.748;19.390;2022-11-11T19:33:52;9.70;99.90
22132;DHT22;11232;51.748;19.390;2022-11-11T19:36:20;9.50;99.90
22132;DHT22;11232;51.748;19.390;2022-11-11T19:38:47;9.60;99.90
22132;DHT22;11232;51.748;19.390;2022-11-11T19:41:18;9.50;99.90
22132;DHT22;11232;51.748;19.390;2022-11-11T19:43:44;9.90;99.90
22132;DHT22;11232;51.748;19.390;2022-11-11T19:46:15;9.50;99.90
22132;DHT22;11232;51.748;19.390;2022-11-11T19:48:41;9.50;99.90
22132;DHT22;11232;51.748;19.390;2022-11-11T19:51:09;9.50;99.90
22132;DHT22;11232;51.748;19.390;2022-11-11T19:53:36;9.50;99.90
22132;DHT22;11232;51.748;19.390;2022-11-11T19:56:10;9.40;99.90
22132;DHT22;11232;51.748;19.390;2022-11-11T19:58:37;9.40;99.90
22132;DHT22;11232;51.748;19.390;2022-11-11T20:01:17;9.40;99.90
22132;DHT22;11232;51.748;19.390;2022-11-11T20:03:44;9.40;99.90
22132;DHT22;11232;51.748;19.390;2022-11-11T20:08:48;9.30;99.90
22132;DHT22;11232;51.748;19.390;2022-11-11T20:11:14;9.20;99.90
22132;DHT22;11232;51.748;19.390;2022-11-11T20:13:40;9.20;99.90
22132;DHT22;11232;51.748;19.390;2022-11-11T20:16:05;9.20;99.90
22132;DHT22;11232;51.748;19.390;2022-11-11T20:18:31;9.20;99.90
22132;DHT22;11232;51.748;19.390;2022-11-11T20:21:02;9.20;99.90
22132;DHT22;11232;51.748;19.390;2022-11-11T20:23:28;9.20;99.90
22132;DHT22;11232;51.748;19.390;2022-11-11T20:25:55;9.20;99.90
22132;DHT22;11232;51.748;19.390;2022-11-11T20:28:21;9.20;99.90
22132;DHT22;11232;51.748;19.390;2022-11-11T20:30:47;9.30;99.90
22132;DHT22;11232;51.748;19.390;2022-11-11T20:33:13;9.20;99.90
22132;DHT22;11232;51.748;19.390;2022-11-11T20:35:38;10.00;99.90
22132;DHT22;11232;51.748;19.390;2022-11-11T20:38:04;9.20;99.90
22132;DHT22;11232;51.748;19.390;2022-11-11T20:40:30;9.70;99.90
22132;DHT22;11232;51.748;19.390;2022-11-11T20:42:59;9.20;99.90
22132;DHT22;11232;51.748;19.390;2022-11-11T20:45:24;9.30;99.90
22132;DHT22;11232;51.748;19.390;2022-11-11T20:47:50;9.10;99.90
22132;DHT22;11232;51.748;19.390;2022-11-11T20:50:15;9.20;99.90
22132;DHT22;11232;51.748;19.390;2022-11-11T20:52:41;9.10;99.90
22132;DHT22;11232;51.748;19.390;2022-11-11T20:55:07;9.10;99.90
22132;DHT22;11232;51.748;19.390;2022-11-11T20:57:33;9.10;99.90
22132;DHT22;11232;51.748;19.390;2022-11-11T20:59:58;9.00;99.90
22132;DHT22;11232;51.748;19.390;2022-11-11T21:02:24;9.00;99.90
22132;DHT22;11232;51.748;19.390;2022-11-11T21:04:49;9.00;99.90
22132;DHT22;11232;51.748;19.390;2022-11-11T21:07:15;9.00;99.90
22132;DHT22;11232;51.748;19.390;2022-11-11T21:09:42;8.90;99.90
22132;DHT22;11232;51.748;19.390;2022-11-11T21:12:08;8.90;99.90
22132;DHT22;11232;51.748;19.390;2022-11-11T21:14:33;8.90;99.90
22132;DHT22;11232;51.748;19.390;2022-11-11T21:16:59;8.90;99.90
22132;DHT22;11232;51.748;19.390;2022-11-11T21:19:25;8.80;99.90
22132;DHT22;11232;51.748;19.390;2022-11-11T21:21:51;8.70;99.90
22132;DHT22;11232;51.748;19.390;2022-11-11T21:24:16;9.00;99.90
22132;DHT22;11232;51.748;19.390;2022-11-11T21:26:42;8.60;99.90
22132;DHT22;11232;51.748;19.390;2022-11-11T21:29:08;8.50;99.90
22132;DHT22;11232;51.748;19.390;2022-11-11T21:31:35;8.50;99.90
22132;DHT22;11232;51.748;19.390;2022-11-11T21:34:09;8.50;99.90
22132;DHT22;11232;51.748;19.390;2022-11-11T21:36:39;8.30;99.90
22132;DHT22;11232;51.748;19.390;2022-11-11T21:39:06;8.20;99.90
22132;DHT22;11232;51.748;19.390;2022-11-11T21:41:35;8.20;99.90
22132;DHT22;11232;51.748;19.390;2022-11-11T21:44:05;8.10;99.90
22132;DHT22;11232;51.748;19.390;2022-11-11T21:46:32;8.10;99.90
22132;DHT22;11232;51.748;19.390;2022-11-11T21:48:59;8.00;99.90
22132;DHT22;11232;51.748;19.390;2022-11-11T21:51:27;8.00;99.90
22132;DHT22;11232;51.748;19.390;2022-11-11T21:53:57;7.90;99.90
22132;DHT22;11232;51.748;19.390;2022-11-11T21:56:25;7.90;99.90
22132;DHT22;11232;51.748;19.390;2022-11-11T21:58:53;7.90;99.90
22132;DHT22;11232;51.748;19.390;2022-11-11T22:01:24;7.90;99.90
22132;DHT22;11232;51.748;19.390;2022-11-11T22:03:55;7.90;99.90
22132;DHT22;11232;51.748;19.390;2022-11-11T22:06:21;7.80;99.90
22132;DHT22;11232;51.748;19.390;2022-11-11T22:08:49;7.80;99.90
22132;DHT22;11232;51.748;19.390;2022-11-11T22:11:17;7.80;99.90
22132;DHT22;11232;51.748;19.390;2022-11-11T22:13:43;7.70;99.90
22132;DHT22;11232;51.748;19.390;2022-11-11T22:16:14;7.70;99.90
22132;DHT22;11232;51.748;19.390;2022-11-11T22:18:40;7.70;99.90
22132;DHT22;11232;51.748;19.390;2022-11-11T22:21:12;7.60;99.90
22132;DHT22;11232;51.748;19.390;2022-11-11T22:23:49;7.50;99.90
22132;DHT22;11232;51.748;19.390;2022-11-11T22:26:16;7.70;99.90
22132;DHT22;11232;51.748;19.390;2022-11-11T22:28:43;7.50;99.90
22132;DHT22;11232;51.748;19.390;2022-11-11T22:31:10;7.40;99.90
22132;DHT22;11232;51.748;19.390;2022-11-11T22:33:37;7.30;99.90
22132;DHT22;11232;51.748;19.390;2022-11-11T22:36:06;7.20;99.90
22132;DHT22;11232;51.748;19.390;2022-11-11T22:38:32;7.20;99.90
22132;DHT22;11232;51.748;19.390;2022-11-11T22:41:36;7.80;99.90
22132;DHT22;11232;51.748;19.390;2022-11-11T22:43:54;7.10;99.90
22132;DHT22;11232;51.748;19.390;2022-11-11T22:46:21;7.10;99.90
22132;DHT22;11232;51.748;19.390;2022-11-11T22:49:09;7.00;99.90
22132;DHT22;11232;51.748;19.390;2022-11-11T22:51:35;7.00;99.90
22132;DHT22;11232;51.748;19.390;2022-11-11T22:54:05;7.00;99.90
22132;DHT22;11232;51.748;19.390;2022-11-11T22:56:33;6.80;99.90
22132;DHT22;11232;51.748;19.390;2022-11-11T22:58:58;6.70;99.90
22132;DHT22;11232;51.748;19.390;2022-11-11T23:01:29;6.70;99.90
22132;DHT22;11232;51.748;19.390;2022-11-11T23:03:56;6.70;99.90
22132;DHT22;11232;51.748;19.390;2022-11-11T23:06:27;6.70;99.90
22132;DHT22;11232;51.748;19.390;2022-11-11T23:08:53;6.60;99.90
22132;DHT22;11232;51.748;19.390;2022-11-11T23:11:24;6.60;99.90
22132;DHT22;11232;51.748;19.390;2022-11-11T23:13:50;6.60;99.90
22132;DHT22;11232;51.748;19.390;2022-11-11T23:16:19;6.50;99.90
22132;DHT22;11232;51.748;19.390;2022-11-11T23:18:45;6.50;99.90
22132;DHT22;11232;51.748;19.390;2022-11-11T23:21:13;6.50;99.90
22132;DHT22;11232;51.748;19.390;2022-11-11T23:23:39;6.40;99.90
22132;DHT22;11232;51.748;19.390;2022-11-11T23:26:10;6.50;99.90
22132;DHT22;11232;51.748;19.390;2022-11-11T23:28:38;6.40;99.90
22132;DHT22;11232;51.748;19.390;2022-11-11T23:31:09;6.50;99.90
22132;DHT22;11232;51.748;19.390;2022-11-11T23:33:41;6.50;99.90
22132;DHT22;11232;51.748;19.390;2022-11-11T23:36:09;6.50;99.90
22132;DHT22;11232;51.748;19.390;2022-11-11T23:38:35;6.40;99.90
22132;DHT22;11232;51.748;19.390;2022-11-11T23:41:02;6.40;99.90
22132;DHT22;11232;51.748;19.390;2022-11-11T23:43:27;5.60;99.90
22132;DHT22;11232;51.748;19.390;2022-11-11T23:45:54;6.50;99.90
22132;DHT22;11232;51.748;19.390;2022-11-11T23:48:20;6.50;99.90
22132;DHT22;11232;51.748;19.390;2022-11-11T23:50:46;6.50;99.90
22132;DHT22;11232;51.748;19.390;2022-11-11T23:53:12;6.90;99.90
22132;DHT22;11232;51.748;19.390;2022-11-11T23:55:38;6.40;99.90
22132;DHT22;11232;51.748;19.390;2022-11-11T23:58:05;6.40;99.90
